Close Search

Base
°C
Summit
°C

WEATHER AT A GLANCE

Image Slideshow

RMR Village

Revelstoke Mountain Resort -  RMR Village Webcam

Top of The Stoke

Revelstoke Mountain Resort -  Top of The Stoke Webcam

Top of Stellar

Revelstoke Mountain Resort -  Top of Stellar Webcam

Mackenzie Outpost

Revelstoke Mountain Resort -  Mackenzie Outpost Webcam

Ripper

Revelstoke Mountain Resort -  Ripper Webcam
Base
°C
Summit
°C
Wind (Summit)
km/h

Today's Forecast

Subpeak Weather

Time Avg. Air Temp Dew Point Avg. Rel Humidity Avg. 2 Min Wind Speed Max Gust Velocity MGV Time MGV Direction Avg. Spot Wind Velocity
2026-05-05 09:45:001° C-7° C51%15 km/h19 km/h09:42:00NE15 km/h
08:45:001° C-8° C51%24 km/h31 km/h08:43:00NE25 km/h
07:45:001° C-8° C52%28 km/h32 km/h07:43:00NE27 km/h
06:45:000° C-8° C53%25 km/h32 km/h06:45:00NE25 km/h
05:45:000° C-8° C52%33 km/h36 km/h05:44:00NE30 km/h
04:45:000° C-8° C53%27 km/h33 km/h04:45:00NE25 km/h
03:45:001° C-8° C52%30 km/h37 km/h03:41:00NE30 km/h
02:45:001° C-8° C51%28 km/h36 km/h02:43:00NE29 km/h
01:45:001° C-7° C54%25 km/h31 km/h01:44:00NE22 km/h
00:45:001° C-7° C55%38 km/h43 km/h00:44:00NE37 km/h
23:45:002° C-6° C58%36 km/h42 km/h23:43:00NE33 km/h
22:45:002° C-5° C59%27 km/h35 km/h22:43:00NE21 km/h
21:45:003° C-5° C58%22 km/h32 km/h21:43:00NE22 km/h
20:45:003° C-4° C57%14 km/h32 km/h20:43:00NE22 km/h
19:45:004° C-4° C56%24 km/h28 km/h19:42:00NE21 km/h
18:45:005° C-3° C54%3 km/h7 km/h18:42:00E3 km/h
17:45:006° C-3° C51%4 km/h12 km/h17:45:00NE3 km/h
16:45:006° C-3° C54%2 km/h11 km/h16:41:00W3 km/h
15:45:005° C-3° C56%11 km/h23 km/h15:43:00NE13 km/h
14:45:006° C-3° C53%1 km/h16 km/h14:41:00NE6 km/h
13:45:005° C-3° C54%10 km/h15 km/h13:44:00NE10 km/h
12:45:006° C-3° C53%4 km/h6 km/h12:45:00NE3 km/h
11:45:004° C-3° C58%2 km/h10 km/h11:41:00E4 km/h
10:45:004° C-3° C61%28 km/h35 km/h10:44:00NE31 km/h

Time Avg. Air Temp Dew Point Avg. Rel Humidity Avg. 2 Min Wind Speed Max Gust Velocity MGV Time MGV Direction Avg. Spot Wind Velocity
2026-05-05 09:45:001° C-7° C51%15 km/h19 km/h09:42:00NE15 km/h
09:40:001° C-8° C48%18 km/h23 km/h09:37:00NE19 km/h
09:35:001° C-9° C49%21 km/h25 km/h09:33:00NE21 km/h
09:30:001° C-8° C49%20 km/h22 km/h09:30:00NE20 km/h
09:25:001° C-8° C49%21 km/h25 km/h09:23:00NE21 km/h
09:20:001° C-9° C48%21 km/h27 km/h09:18:00E23 km/h
09:15:001° C-8° C50%21 km/h28 km/h09:13:00NE23 km/h
09:10:001° C-8° C50%19 km/h26 km/h09:09:00NE21 km/h
09:05:001° C-8° C49%23 km/h26 km/h09:01:00NE23 km/h
09:00:001° C-8° C51%24 km/h27 km/h08:59:00NE23 km/h
08:55:001° C-8° C51%24 km/h27 km/h08:52:00NE23 km/h
08:50:001° C-8° C51%22 km/h28 km/h08:46:00NE25 km/h
08:45:001° C-8° C51%24 km/h31 km/h08:43:00NE25 km/h

We value your privacy
We use cookies to enhance your browsing experience, serve personalized ads or content, and analyze our traffic. By clicking "Allow Cookies", you consent to our use of cookies. For additional details view our Privacy Policy.
Cookie preferences

You can control how your data is used on our website. Learn more below about the cookies we use by reviewing our Privacy Policy.

Your cookie preferences have been saved.